Time;durP1;ratioP1;P1;durP2;ratioP2;P2;SDS_P1;SDS_P2;PMS_P1;PMS_P2;Temp;Humidity;BMP_temperature;BMP_pressure;BME280_temperature;BME280_humidity;BME280_pressure;Samples;Min_cycle;Max_cycle;Signal;HPM_P1;HPM_P2
2023/04/22 00:00:27;;;;;;;7.85;5.60;;;;;;;;;;2055126;28;20417;-90
2023/04/22 00:01:28;;;;;;;6.63;5.88;;;;;;;;;;2064018;28;20291;-91
2023/04/22 00:03:40;;;;;;;8.32;6.03;;;;;;;;;;1953312;26;20039;-89
2023/04/22 00:04:44;;;;;;;9.13;6.95;;;;;;;;;;2055291;28;20023;-89
2023/04/22 00:05:45;;;;;;;9.55;6.38;;;;;;;;;;2055861;28;20425;-89
2023/04/22 00:06:45;;;;;;;10.00;6.45;;;;;;;;;;2062874;28;20018;-88
2023/04/22 00:07:46;;;;;;;7.40;5.82;;;;;;;;;;2063603;28;20026;-89
2023/04/22 00:08:46;;;;;;;7.00;5.95;;;;;;;;;;2055106;28;20101;-88
2023/04/22 00:09:49;;;;;;;7.65;5.50;;;;;;;;;;2055144;28;20526;-88
2023/04/22 00:10:50;;;;;;;7.18;5.63;;;;;;;;;;2063822;28;20030;-88
2023/04/22 00:11:51;;;;;;;9.02;6.50;;;;;;;;;;2054883;28;20034;-88
2023/04/22 00:12:51;;;;;;;7.63;5.78;;;;;;;;;;2054764;28;20108;-88
2023/04/22 00:13:52;;;;;;;8.73;5.60;;;;;;;;;;2055051;28;20027;-88
2023/04/22 00:14:52;;;;;;;8.43;6.43;;;;;;;;;;2054968;28;20190;-88
2023/04/22 00:15:53;;;;;;;8.18;5.97;;;;;;;;;;2054901;28;20121;-88
2023/04/22 00:16:54;;;;;;;8.02;6.13;;;;;;;;;;2054963;28;20067;-88
2023/04/22 00:17:55;;;;;;;8.70;6.07;;;;;;;;;;2063502;28;20485;-89
2023/04/22 00:18:55;;;;;;;7.95;5.80;;;;;;;;;;2065309;28;20037;-89
2023/04/22 00:19:56;;;;;;;7.20;5.45;;;;;;;;;;2068304;28;20422;-88
2023/04/22 00:20:56;;;;;;;8.68;6.30;;;;;;;;;;2056549;28;20049;-88
2023/04/22 00:21:57;;;;;;;6.63;5.65;;;;;;;;;;2055175;28;20035;-88
2023/04/22 00:22:57;;;;;;;;;;;;;;;;;;2064470;28;20363;-89
2023/04/22 00:23:58;;;;;;;8.07;6.30;;;;;;;;;;2055155;28;20370;-87
2023/04/22 00:24:58;;;;;;;8.40;6.18;;;;;;;;;;2055149;28;20102;-88
2023/04/22 00:25:59;;;;;;;8.90;6.20;;;;;;;;;;2055099;28;20023;-88
2023/04/22 00:27:01;;;;;;;10.18;6.00;;;;;;;;;;2062895;28;20054;-88
2023/04/22 00:28:02;;;;;;;8.52;6.03;;;;;;;;;;2062952;28;20026;-89
2023/04/22 00:29:02;;;;;;;8.23;5.82;;;;;;;;;;2063820;28;20022;-88
2023/04/22 00:30:04;;;;;;;7.00;5.72;;;;;;;;;;2063809;28;20056;-89
2023/04/22 00:31:05;;;;;;;8.43;5.55;;;;;;;;;;2063010;28;20034;-88
2023/04/22 00:32:05;;;;;;;7.25;5.78;;;;;;;;;;2063015;28;20454;-89
2023/04/22 00:33:07;;;;;;;7.40;5.90;;;;;;;;;;2063353;28;20525;-89
2023/04/22 00:34:07;;;;;;;9.90;5.90;;;;;;;;;;2063580;28;20046;-89
2023/04/22 00:35:08;;;;;;;7.50;5.88;;;;;;;;;;2062862;28;20490;-89
2023/04/22 00:36:08;;;;;;;7.47;5.88;;;;;;;;;;2054996;28;20109;-89
2023/04/22 00:37:09;;;;;;;7.78;6.40;;;;;;;;;;2054991;28;20081;-89
2023/04/22 00:38:09;;;;;;;7.82;6.30;;;;;;;;;;2054793;28;20025;-89
2023/04/22 00:39:11;;;;;;;8.43;6.65;;;;;;;;;;2054697;28;20422;-89
2023/04/22 00:40:11;;;;;;;8.70;6.63;;;;;;;;;;2054893;28;20125;-89
2023/04/22 00:41:12;;;;;;;9.52;6.13;;;;;;;;;;2063811;28;20409;-89
2023/04/22 00:42:12;;;;;;;7.97;6.10;;;;;;;;;;2054685;28;20047;-89
2023/04/22 00:43:15;;;;;;;9.82;6.47;;;;;;;;;;2054986;28;20087;-89
2023/04/22 00:44:17;;;;;;;12.05;6.97;;;;;;;;;;2062661;28;20083;-89
2023/04/22 00:45:19;;;;;;;8.43;6.35;;;;;;;;;;2062599;28;20026;-88
2023/04/22 00:46:20;;;;;;;8.32;6.68;;;;;;;;;;2063395;28;20071;-89
2023/04/22 00:47:25;;;;;;;7.22;6.10;;;;;;;;;;2062404;28;20026;-89
2023/04/22 00:48:26;;;;;;;8.18;6.28;;;;;;;;;;2062623;28;20022;-89
2023/04/22 00:49:26;;;;;;;8.32;6.93;;;;;;;;;;2063476;28;20474;-89
2023/04/22 00:50:30;;;;;;;7.65;6.43;;;;;;;;;;2062891;28;20418;-89
2023/04/22 00:51:31;;;;;;;8.15;5.93;;;;;;;;;;2062705;28;20032;-89
2023/04/22 00:52:34;;;;;;;9.70;6.05;;;;;;;;;;2054685;28;20027;-89
2023/04/22 00:53:34;;;;;;;9.02;6.20;;;;;;;;;;2055085;28;20459;-89
2023/04/22 00:54:35;;;;;;;7.43;5.53;;;;;;;;;;2063387;28;20028;-89
2023/04/22 00:55:36;;;;;;;7.63;5.75;;;;;;;;;;2063570;28;20022;-89
2023/04/22 00:56:37;;;;;;;11.68;6.10;;;;;;;;;;2062873;28;20421;-90
2023/04/22 00:57:38;;;;;;;10.13;6.90;;;;;;;;;;2062287;28;20099;-89
2023/04/22 00:58:39;;;;;;;8.32;5.85;;;;;;;;;;2061943;28;20097;-89
2023/04/22 00:59:41;;;;;;;15.18;8.80;;;;;;;;;;1710305;28;10247415;-89
2023/04/22 01:00:42;;;;;;;22.95;12.10;;;;;;;;;;2063342;28;20422;-90
2023/04/22 01:01:43;;;;;;;24.67;12.25;;;;;;;;;;2062977;28;20064;-90
2023/04/22 01:02:43;;;;;;;18.17;9.32;;;;;;;;;;2064146;28;20026;-89
2023/04/22 01:03:45;;;;;;;9.35;6.72;;;;;;;;;;2073327;28;20064;-90
2023/04/22 01:04:46;;;;;;;15.23;8.60;;;;;;;;;;2073271;28;20026;-89
2023/04/22 01:05:48;;;;;;;12.43;7.78;;;;;;;;;;2073517;28;20034;-90
2023/04/22 01:06:51;;;;;;;13.10;7.88;;;;;;;;;;2073385;28;20299;-89
2023/04/22 01:07:51;;;;;;;10.73;7.00;;;;;;;;;;2073060;28;20026;-89
2023/04/22 01:08:52;;;;;;;10.82;7.22;;;;;;;;;;2069031;28;20451;-89
2023/04/22 01:09:53;;;;;;;8.50;7.15;;;;;;;;;;2064588;28;20026;-88
2023/04/22 01:10:55;;;;;;;10.07;7.13;;;;;;;;;;2064111;28;20060;-88
2023/04/22 01:11:56;;;;;;;10.10;7.20;;;;;;;;;;2067012;28;20391;-89
2023/04/22 01:12:57;;;;;;;9.73;6.32;;;;;;;;;;1714873;28;10003026;-89
2023/04/22 01:13:58;;;;;;;9.43;6.60;;;;;;;;;;2054506;28;20430;-89
2023/04/22 01:14:58;;;;;;;8.65;7.00;;;;;;;;;;2054624;28;20129;-90
2023/04/22 01:15:59;;;;;;;;;;;;;;;;;;2055247;28;20026;-90
2023/04/22 01:17:00;;;;;;;8.17;6.27;;;;;;;;;;2046512;29;19938;-89
2023/04/22 01:18:02;;;;;;;8.43;5.60;;;;;;;;;;2054566;28;20023;-89
2023/04/22 01:19:02;;;;;;;7.40;5.75;;;;;;;;;;2054590;28;20025;-89
2023/04/22 01:20:04;;;;;;;7.80;5.90;;;;;;;;;;2054951;28;20046;-89
2023/04/22 01:21:05;;;;;;;8.10;5.70;;;;;;;;;;2054511;28;20027;-89
2023/04/22 01:22:07;;;;;;;6.65;5.63;;;;;;;;;;2056366;28;20494;-89
2023/04/22 01:23:16;;;;;;;7.10;5.55;;;;;;;;;;2064991;28;20035;-90
2023/04/22 01:24:16;;;;;;;8.57;5.70;;;;;;;;;;2065259;28;20034;-91
2023/04/22 01:25:17;;;;;;;7.60;5.43;;;;;;;;;;2064775;28;20006;-91
2023/04/22 01:26:18;;;;;;;;;;;;;;;;;;2065318;28;20596;-91
2023/04/22 01:27:18;;;;;;;6.77;5.47;;;;;;;;;;2064707;28;19902;-91
2023/04/22 01:28:19;;;;;;;;;;;;;;;;;;2059767;28;20062;-90
2023/04/22 01:29:20;;;;;;;7.03;5.37;;;;;;;;;;2060362;28;19921;-90
2023/04/22 01:30:20;;;;;;;6.45;5.30;;;;;;;;;;2063790;28;20015;-91
2023/04/22 01:31:21;;;;;;;;;;;;;;;;;;2063714;28;20101;-91
2023/04/22 01:32:21;;;;;;;9.10;5.50;;;;;;;;;;2054681;28;19933;-90
2023/04/22 01:33:22;;;;;;;;;;;;;;;;;;2055223;28;20129;-91
2023/04/22 01:34:22;;;;;;;7.03;5.73;;;;;;;;;;2062754;28;19917;-90
2023/04/22 01:35:23;;;;;;;8.27;6.07;;;;;;;;;;2063578;28;20378;-90
2023/04/22 01:36:23;;;;;;;8.60;6.88;;;;;;;;;;2054763;28;20030;-90
2023/04/22 01:37:23;;;;;;;;;;;;;;;;;;2055330;28;20447;-92
2023/04/22 01:38:24;;;;;;;6.87;5.80;;;;;;;;;;2054938;28;20065;-90
2023/04/22 01:39:24;;;;;;;;;;;;;;;;;;2063141;28;20029;-91
2023/04/22 01:40:25;;;;;;;8.50;6.23;;;;;;;;;;2055038;28;19946;-91
2023/04/22 01:41:25;;;;;;;8.55;6.60;;;;;;;;;;2054775;28;20061;-91
2023/04/22 01:42:27;;;;;;;8.75;6.50;;;;;;;;;;2054890;28;20033;-91
2023/04/22 01:43:29;;;;;;;9.52;7.00;;;;;;;;;;2055735;28;20029;-90
2023/04/22 01:44:30;;;;;;;8.25;6.13;;;;;;;;;;2058939;28;20090;-90
2023/04/22 01:45:32;;;;;;;8.25;6.03;;;;;;;;;;2059730;28;20026;-90
2023/04/22 01:46:33;;;;;;;8.48;6.60;;;;;;;;;;2050284;28;20403;-91
2023/04/22 01:47:33;;;;;;;7.60;6.30;;;;;;;;;;2056377;28;20095;-91
2023/04/22 01:48:34;;;;;;;;;;;;;;;;;;2065674;28;20026;-91
2023/04/22 01:49:34;;;;;;;9.27;6.53;;;;;;;;;;2056115;28;19910;-90
2023/04/22 01:50:35;;;;;;;9.15;6.75;;;;;;;;;;2056602;28;20494;-91
2023/04/22 01:51:35;;;;;;;8.90;6.80;;;;;;;;;;2056381;28;20126;-91
2023/04/22 01:52:36;;;;;;;8.18;6.10;;;;;;;;;;2056351;28;20118;-90
2023/04/22 01:53:38;;;;;;;9.95;7.22;;;;;;;;;;2056330;28;20153;-91
2023/04/22 01:54:40;;;;;;;9.15;7.07;;;;;;;;;;2056761;28;20027;-91
2023/04/22 01:55:42;;;;;;;10.13;6.90;;;;;;;;;;2064879;28;20034;-91
2023/04/22 01:56:50;;;;;;;9.43;6.90;;;;;;;;;;2065417;28;20481;-91
2023/04/22 01:57:51;;;;;;;8.55;6.53;;;;;;;;;;2064834;28;20085;-90
2023/04/22 01:58:51;;;;;;;11.57;6.63;;;;;;;;;;2064345;28;20473;-91
2023/04/22 01:59:52;;;;;;;8.98;6.43;;;;;;;;;;2056136;28;20023;-92
2023/04/22 02:00:52;;;;;;;;;;;;;;;;;;2056571;28;20363;-91
2023/04/22 02:01:52;;;;;;;8.57;7.20;;;;;;;;;;2056434;28;19914;-91
2023/04/22 02:02:53;;;;;;;8.40;6.80;;;;;;;;;;2057267;28;20034;-92
2023/04/22 02:03:53;;;;;;;10.57;6.97;;;;;;;;;;2061519;28;20069;-92
2023/04/22 02:04:54;;;;;;;8.80;6.60;;;;;;;;;;2061952;28;20104;-91
2023/04/22 02:05:54;;;;;;;9.98;7.20;;;;;;;;;;2057050;28;20022;-92
2023/04/22 02:06:54;;;;;;;;;;;;;;;;;;2057019;28;20023;-91
2023/04/22 02:07:55;;;;;;;9.30;7.40;;;;;;;;;;2056415;28;20386;-91
2023/04/22 02:08:55;;;;;;;8.98;6.75;;;;;;;;;;2066148;28;20061;-91
2023/04/22 02:09:56;;;;;;;;;;;;;;;;;;2065970;28;20030;-91
2023/04/22 02:10:57;;;;;;;10.20;6.67;;;;;;;;;;2065262;28;19945;-91
2023/04/22 02:11:57;;;;;;;9.88;7.47;;;;;;;;;;2056951;28;20078;-92
2023/04/22 02:12:58;;;;;;;12.50;8.02;;;;;;;;;;2056357;28;20030;-92
2023/04/22 02:14:00;;;;;;;14.20;7.25;;;;;;;;;;2057028;28;20119;-93
2023/04/22 02:15:02;;;;;;;9.55;7.20;;;;;;;;;;2056054;28;20073;-91
2023/04/22 02:16:03;;;;;;;9.48;7.20;;;;;;;;;;2055805;28;20094;-89
2023/04/22 02:17:03;;;;;;;9.65;6.95;;;;;;;;;;2056363;28;20037;-90
2023/04/22 02:18:05;;;;;;;9.15;7.10;;;;;;;;;;2055978;28;20038;-89
2023/04/22 02:19:05;;;;;;;9.68;7.45;;;;;;;;;;2048278;28;20027;-90
2023/04/22 02:20:09;;;;;;;8.90;6.57;;;;;;;;;;2056079;28;20058;-90
2023/04/22 02:21:10;;;;;;;12.18;7.75;;;;;;;;;;2055560;28;20026;-89
2023/04/22 02:22:11;;;;;;;9.73;7.60;;;;;;;;;;2055623;28;20018;-90
2023/04/22 02:23:11;;;;;;;12.43;7.78;;;;;;;;;;2063575;28;20076;-89
2023/04/22 02:24:12;;;;;;;11.43;7.38;;;;;;;;;;2064362;28;20030;-89
2023/04/22 02:25:12;;;;;;;9.02;7.18;;;;;;;;;;2064389;28;20260;-89
2023/04/22 02:26:13;;;;;;;;;;;;;;;;;;2065005;28;20029;-90
2023/04/22 02:27:14;;;;;;;12.20;7.80;;;;;;;;;;2064642;28;20338;-90
2023/04/22 02:28:14;;;;;;;13.02;7.57;;;;;;;;;;2063840;28;20438;-89
2023/04/22 02:29:17;;;;;;;;;;;;;;;;;;2064340;28;20022;-91
2023/04/22 02:30:18;;;;;;;11.52;7.97;;;;;;;;;;2055705;28;19910;-90
2023/04/22 02:31:18;;;;;;;11.68;8.07;;;;;;;;;;2055849;28;20034;-91
2023/04/22 02:32:19;;;;;;;11.40;7.70;;;;;;;;;;2064004;28;20037;-90
2023/04/22 02:33:19;;;;;;;14.88;8.15;;;;;;;;;;2055653;28;20041;-90
2023/04/22 02:34:20;;;;;;;12.07;8.50;;;;;;;;;;2055614;28;20015;-91
2023/04/22 02:35:20;;;;;;;11.70;8.18;;;;;;;;;;2055734;28;20111;-90
2023/04/22 02:36:21;;;;;;;10.60;8.18;;;;;;;;;;2055766;28;20015;-91
2023/04/22 02:37:21;;;;;;;;;;;;;;;;;;2056374;28;20102;-90
2023/04/22 02:38:22;;;;;;;11.63;9.03;;;;;;;;;;2055473;28;19914;-89
2023/04/22 02:39:24;;;;;;;;;;;;;;;;;;2064408;28;20022;-89
2023/04/22 02:40:24;;;;;;;;;;;;;;;;;;2055761;28;19981;-90
2023/04/22 02:41:27;;;;;;;14.03;10.33;;;;;;;;;;2055231;28;20342;-90
2023/04/22 02:42:27;;;;;;;14.93;8.90;;;;;;;;;;2055456;28;20276;-89
2023/04/22 02:43:30;;;;;;;13.95;9.32;;;;;;;;;;2055398;28;20026;-90
2023/04/22 02:44:31;;;;;;;14.73;8.90;;;;;;;;;;2064159;28;20145;-90
2023/04/22 02:45:31;;;;;;;14.32;9.60;;;;;;;;;;2064034;28;20493;-90
2023/04/22 02:46:32;;;;;;;14.10;9.50;;;;;;;;;;2055429;28;20026;-90
2023/04/22 02:47:32;;;;;;;14.40;9.38;;;;;;;;;;2055131;28;20046;-90
2023/04/22 02:48:32;;;;;;;14.43;9.23;;;;;;;;;;2063412;28;20503;-90
2023/04/22 02:49:33;;;;;;;15.23;9.65;;;;;;;;;;2063431;28;20293;-89
2023/04/22 02:50:33;;;;;;;15.23;9.90;;;;;;;;;;2063806;28;20486;-90
2023/04/22 02:51:36;;;;;;;;;;;;;;;;;;2064242;28;20057;-91
2023/04/22 02:52:37;;;;;;;17.85;9.75;;;;;;;;;;2063679;28;19909;-89
2023/04/22 02:53:39;;;;;;;15.88;9.70;;;;;;;;;;2055103;28;20486;-89
2023/04/22 02:54:40;;;;;;;17.48;9.98;;;;;;;;;;2055151;28;20031;-89
2023/04/22 02:55:41;;;;;;;16.45;9.32;;;;;;;;;;2064856;28;20556;-89
2023/04/22 02:56:41;;;;;;;18.05;10.93;;;;;;;;;;2067712;28;20042;-89
2023/04/22 02:57:42;;;;;;;23.50;9.85;;;;;;;;;;2068164;28;20046;-89
2023/04/22 02:58:42;;;;;;;20.42;9.38;;;;;;;;;;2064139;28;20097;-89
2023/04/22 02:59:43;;;;;;;14.07;9.65;;;;;;;;;;2063196;28;20437;-89
2023/04/22 03:00:43;;;;;;;17.30;9.23;;;;;;;;;;2063194;28;20047;-90
2023/04/22 03:01:43;;;;;;;19.33;10.30;;;;;;;;;;2055010;28;20061;-90
2023/04/22 03:02:44;;;;;;;;;;;;;;;;;;2055525;28;20486;-89
2023/04/22 03:03:44;;;;;;;16.27;10.23;;;;;;;;;;2063179;28;19916;-88
2023/04/22 03:04:45;;;;;;;17.40;9.85;;;;;;;;;;2066780;28;20026;-89
2023/04/22 03:05:45;;;;;;;15.45;10.00;;;;;;;;;;2063532;28;20036;-89
2023/04/22 03:06:48;;;;;;;17.63;10.45;;;;;;;;;;2063376;28;20101;-89
2023/04/22 03:07:48;;;;;;;17.88;10.55;;;;;;;;;;2063162;28;20117;-89
2023/04/22 03:08:48;;;;;;;15.40;9.70;;;;;;;;;;2055092;28;20022;-89
2023/04/22 03:09:49;;;;;;;17.38;10.75;;;;;;;;;;2055068;28;20117;-90
2023/04/22 03:10:49;;;;;;;14.25;9.38;;;;;;;;;;2063997;28;20109;-89
2023/04/22 03:11:50;;;;;;;17.58;9.70;;;;;;;;;;2064016;28;20028;-89
2023/04/22 03:12:50;;;;;;;16.55;10.38;;;;;;;;;;2063712;28;20026;-89
2023/04/22 03:13:51;;;;;;;14.32;8.82;;;;;;;;;;2063803;28;20100;-90
2023/04/22 03:14:51;;;;;;;13.20;8.85;;;;;;;;;;2063723;28;20027;-89
2023/04/22 03:15:52;;;;;;;13.95;9.10;;;;;;;;;;2063574;28;20164;-88
2023/04/22 03:16:52;;;;;;;14.95;9.48;;;;;;;;;;2063588;28;20040;-89
2023/04/22 03:17:52;;;;;;;14.82;9.50;;;;;;;;;;2063710;28;20027;-90
2023/04/22 03:18:53;;;;;;;18.60;10.38;;;;;;;;;;2063678;28;20076;-90
2023/04/22 03:19:53;;;;;;;;;;;;;;;;;;2064111;28;20489;-89
2023/04/22 03:20:54;;;;;;;17.70;10.03;;;;;;;;;;2062908;28;19953;-90
2023/04/22 03:21:55;;;;;;;14.30;9.80;;;;;;;;;;2063093;28;20022;-90
2023/04/22 03:22:55;;;;;;;13.90;9.32;;;;;;;;;;2063810;28;20109;-88
2023/04/22 03:23:56;;;;;;;14.27;9.73;;;;;;;;;;2063016;28;20564;-89
2023/04/22 03:24:56;;;;;;;;;;;;;;;;;;2063650;28;20128;-89
2023/04/22 03:25:56;;;;;;;15.27;10.23;;;;;;;;;;2063681;28;19910;-91
2023/04/22 03:26:57;;;;;;;;;;;;;;;;;;2063470;28;20117;-89
2023/04/22 03:27:58;;;;;;;13.10;9.57;;;;;;;;;;2063209;28;20249;-90
2023/04/22 03:28:59;;;;;;;14.55;10.00;;;;;;;;;;2054862;28;20101;-88
2023/04/22 03:29:59;;;;;;;;;;;;;;;;;;2055357;28;20058;-88
2023/04/22 03:30:59;;;;;;;15.23;10.00;;;;;;;;;;2063753;28;19957;-90
2023/04/22 03:32:00;;;;;;;15.38;9.98;;;;;;;;;;2062610;28;20112;-90
2023/04/22 03:33:00;;;;;;;13.25;9.60;;;;;;;;;;2062937;28;20402;-90
2023/04/22 03:34:01;;;;;;;14.38;9.18;;;;;;;;;;2063501;28;20019;-90
2023/04/22 03:35:01;;;;;;;;;;;;;;;;;;2064122;28;20540;-90
2023/04/22 03:36:04;;;;;;;15.87;10.57;;;;;;;;;;2063168;28;19972;-90
2023/04/22 03:37:05;;;;;;;16.35;9.68;;;;;;;;;;2063554;28;20126;-90
2023/04/22 03:38:06;;;;;;;14.85;9.98;;;;;;;;;;2062213;28;20023;-88
2023/04/22 03:39:07;;;;;;;14.68;10.38;;;;;;;;;;2059523;28;20027;-90
2023/04/22 03:40:08;;;;;;;14.70;9.95;;;;;;;;;;2061244;28;20065;-90
2023/04/22 03:41:08;;;;;;;15.15;9.57;;;;;;;;;;2072824;28;20010;-90
2023/04/22 03:42:09;;;;;;;13.32;9.38;;;;;;;;;;2065317;28;20007;-89
2023/04/22 03:43:10;;;;;;;15.52;10.93;;;;;;;;;;2063393;28;20023;-89
2023/04/22 03:44:11;;;;;;;17.13;11.05;;;;;;;;;;2057925;28;20565;-90
2023/04/22 03:45:11;;;;;;;16.67;12.05;;;;;;;;;;2057821;28;20508;-88
2023/04/22 03:46:11;;;;;;;16.17;10.73;;;;;;;;;;2063760;28;20551;-89
2023/04/22 03:47:12;;;;;;;;;;;;;;;;;;2064124;28;20038;-89
2023/04/22 03:48:12;;;;;;;12.73;9.70;;;;;;;;;;2065226;28;19977;-89
2023/04/22 03:49:13;;;;;;;15.90;10.85;;;;;;;;;;2067516;28;20509;-88
2023/04/22 03:50:13;;;;;;;16.63;10.20;;;;;;;;;;2067601;28;20145;-88
2023/04/22 03:51:13;;;;;;;14.77;9.77;;;;;;;;;;2063880;28;20165;-88
2023/04/22 03:52:14;;;;;;;16.83;10.77;;;;;;;;;;2062713;28;20496;-88
2023/04/22 03:53:14;;;;;;;15.35;10.02;;;;;;;;;;2062740;28;20022;-90
2023/04/22 03:54:15;;;;;;;14.00;9.93;;;;;;;;;;2063920;28;20014;-92
2023/04/22 03:55:15;;;;;;;14.88;10.43;;;;;;;;;;2063983;28;20018;-89
2023/04/22 03:56:16;;;;;;;17.13;10.57;;;;;;;;;;2065424;28;20076;-89
2023/04/22 03:57:17;;;;;;;13.15;9.40;;;;;;;;;;2065077;28;20010;-89
2023/04/22 03:58:18;;;;;;;14.45;10.30;;;;;;;;;;2065345;28;20011;-88
2023/04/22 03:59:18;;;;;;;14.75;10.18;;;;;;;;;;2073318;28;20071;-88
2023/04/22 04:00:19;;;;;;;13.93;9.60;;;;;;;;;;2065066;28;20030;-88
2023/04/22 04:01:19;;;;;;;14.95;10.27;;;;;;;;;;2064784;28;20003;-90
2023/04/22 04:02:19;;;;;;;;;;;;;;;;;;2059080;28;20154;-88
2023/04/22 04:03:20;;;;;;;14.33;10.27;;;;;;;;;;2063463;28;20371;-86
2023/04/22 04:04:22;;;;;;;13.38;10.05;;;;;;;;;;2064318;28;20034;-87
2023/04/22 04:05:22;;;;;;;15.77;11.43;;;;;;;;;;2064006;28;20106;-90
2023/04/22 04:06:23;;;;;;;16.08;10.32;;;;;;;;;;2064083;28;20500;-88
2023/04/22 04:07:23;;;;;;;19.35;11.00;;;;;;;;;;2062709;28;20024;-88
2023/04/22 04:08:24;;;;;;;;;;;;;;;;;;2062243;28;20482;-87
2023/04/22 04:09:28;;;;;;;14.17;10.13;;;;;;;;;;2054639;28;19932;-87
2023/04/22 04:10:29;;;;;;;18.65;10.90;;;;;;;;;;2054368;28;20039;-88
2023/04/22 04:11:30;;;;;;;15.73;10.75;;;;;;;;;;2054860;28;20037;-88
2023/04/22 04:12:30;;;;;;;15.85;10.93;;;;;;;;;;2054383;28;20054;-88
2023/04/22 04:13:31;;;;;;;16.58;11.38;;;;;;;;;;2063338;28;20482;-88
2023/04/22 04:14:31;;;;;;;;;;;;;;;;;;2062671;28;20037;-88
2023/04/22 04:15:31;;;;;;;16.50;10.40;;;;;;;;;;2063688;28;19910;-88
2023/04/22 04:16:32;;;;;;;17.33;11.43;;;;;;;;;;2063742;28;20031;-88
2023/04/22 04:17:33;;;;;;;;;;;;;;;;;;2063851;28;20026;-90
2023/04/22 04:18:33;;;;;;;21.13;12.90;;;;;;;;;;2063473;28;19920;-88
2023/04/22 04:19:34;;;;;;;22.23;12.60;;;;;;;;;;2063116;28;20457;-91
2023/04/22 04:20:35;;;;;;;18.85;12.00;;;;;;;;;;2063219;28;20061;-87
2023/04/22 04:21:36;;;;;;;19.98;13.32;;;;;;;;;;2054115;28;20589;-89
2023/04/22 04:22:37;;;;;;;18.48;12.18;;;;;;;;;;2054245;28;20027;-89
2023/04/22 04:23:38;;;;;;;18.35;11.70;;;;;;;;;;2063115;28;20501;-89
2023/04/22 04:24:40;;;;;;;16.23;11.70;;;;;;;;;;2063269;28;20038;-89
2023/04/22 04:25:42;;;;;;;16.70;11.05;;;;;;;;;;2062669;28;20388;-89
2023/04/22 04:26:42;;;;;;;15.73;10.80;;;;;;;;;;2063145;28;20018;-90
2023/04/22 04:27:44;;;;;;;18.08;12.07;;;;;;;;;;2063033;28;20478;-89
2023/04/22 04:28:46;;;;;;;17.58;11.85;;;;;;;;;;2054242;28;20026;-88
2023/04/22 04:29:46;;;;;;;18.13;12.35;;;;;;;;;;2054131;28;20397;-88
2023/04/22 04:30:47;;;;;;;17.83;11.82;;;;;;;;;;2062786;28;20026;-89
2023/04/22 04:31:47;;;;;;;16.77;11.55;;;;;;;;;;2054258;28;20028;-88
2023/04/22 04:32:48;;;;;;;16.70;11.70;;;;;;;;;;2054129;28;20087;-89
2023/04/22 04:33:49;;;;;;;;;;;;;;;;;;2063333;28;20164;-89
2023/04/22 04:34:49;;;;;;;19.73;11.17;;;;;;;;;;2062491;28;19914;-89
2023/04/22 04:35:50;;;;;;;;;;;;;;;;;;2055006;28;20661;-89
2023/04/22 04:36:50;;;;;;;18.37;11.10;;;;;;;;;;2054575;28;19986;-89
2023/04/22 04:37:52;;;;;;;16.50;11.10;;;;;;;;;;2063281;28;20034;-89
2023/04/22 04:38:53;;;;;;;17.23;11.00;;;;;;;;;;2054104;28;20023;-89
2023/04/22 04:39:53;;;;;;;19.67;11.55;;;;;;;;;;2054261;28;20066;-88
2023/04/22 04:40:53;;;;;;;17.75;11.18;;;;;;;;;;2057429;28;20404;-88
2023/04/22 04:41:57;;;;;;;18.88;12.25;;;;;;;;;;2068509;28;20084;-88
2023/04/22 04:42:57;;;;;;;18.30;12.63;;;;;;;;;;2056113;28;20178;-88
2023/04/22 04:44:01;;;;;;;18.05;11.90;;;;;;;;;;2054777;28;20165;-89
2023/04/22 04:45:02;;;;;;;17.73;12.00;;;;;;;;;;2063302;28;20471;-89
2023/04/22 04:46:02;;;;;;;20.17;12.32;;;;;;;;;;2062910;28;20037;-89
2023/04/22 04:47:04;;;;;;;21.15;13.55;;;;;;;;;;2062905;28;20153;-90
2023/04/22 04:48:07;;;;;;;20.92;12.88;;;;;;;;;;2062971;28;20036;-89
2023/04/22 04:49:11;;;;;;;21.30;13.65;;;;;;;;;;2062688;28;20392;-89
2023/04/22 04:50:12;;;;;;;17.75;12.90;;;;;;;;;;2063178;28;20101;-89
2023/04/22 04:51:13;;;;;;;19.67;12.77;;;;;;;;;;2062117;28;20468;-89
2023/04/22 04:52:14;;;;;;;17.15;12.52;;;;;;;;;;2062355;28;20022;-90
2023/04/22 04:53:14;;;;;;;17.33;12.60;;;;;;;;;;2062426;28;20378;-90
2023/04/22 04:54:15;;;;;;;19.13;11.75;;;;;;;;;;2062583;28;20649;-89
2023/04/22 04:55:16;;;;;;;17.80;12.68;;;;;;;;;;2062881;28;20042;-90
2023/04/22 04:56:16;;;;;;;17.88;11.57;;;;;;;;;;2054911;28;20505;-90
2023/04/22 04:57:17;;;;;;;17.60;12.20;;;;;;;;;;2055122;28;20094;-90
2023/04/22 04:58:17;;;;;;;20.42;13.35;;;;;;;;;;2054823;28;20478;-89
2023/04/22 04:59:18;;;;;;;18.15;12.52;;;;;;;;;;2054870;28;20054;-89
2023/04/22 05:00:19;;;;;;;14.50;11.13;;;;;;;;;;2062833;28;20080;-90
2023/04/22 05:01:21;;;;;;;16.60;10.88;;;;;;;;;;2063119;28;20022;-90
2023/04/22 05:02:22;;;;;;;16.30;10.88;;;;;;;;;;2063696;28;20078;-90
2023/04/22 05:03:22;;;;;;;12.88;9.20;;;;;;;;;;2061891;28;20038;-89
2023/04/22 05:04:23;;;;;;;13.45;10.13;;;;;;;;;;2062471;28;20506;-89
2023/04/22 05:05:23;;;;;;;13.07;9.68;;;;;;;;;;2063486;28;20513;-89
2023/04/22 05:06:23;;;;;;;13.48;9.45;;;;;;;;;;2063222;28;20033;-88
2023/04/22 05:07:24;;;;;;;11.65;8.30;;;;;;;;;;2062525;28;20022;-89
2023/04/22 05:08:24;;;;;;;14.10;9.98;;;;;;;;;;2054509;28;20069;-89
2023/04/22 05:09:25;;;;;;;13.23;9.70;;;;;;;;;;2054516;28;20027;-89
2023/04/22 05:10:25;;;;;;;15.48;10.55;;;;;;;;;;2063049;28;20084;-90
2023/04/22 05:11:26;;;;;;;13.57;10.80;;;;;;;;;;2063456;28;20454;-89
2023/04/22 05:12:26;;;;;;;18.88;11.15;;;;;;;;;;2062314;28;20086;-90
2023/04/22 05:13:27;;;;;;;17.08;10.95;;;;;;;;;;2062381;28;20565;-89
2023/04/22 05:14:27;;;;;;;16.08;12.18;;;;;;;;;;2054451;28;20093;-88
2023/04/22 05:15:27;;;;;;;16.17;11.95;;;;;;;;;;2054352;28;20022;-89
2023/04/22 05:16:28;;;;;;;14.98;10.80;;;;;;;;;;2062606;28;20026;-88
2023/04/22 05:17:29;;;;;;;15.95;12.35;;;;;;;;;;2054287;28;20054;-89
2023/04/22 05:18:29;;;;;;;15.35;11.13;;;;;;;;;;2054872;28;20023;-89
2023/04/22 05:19:32;;;;;;;13.20;10.10;;;;;;;;;;2062487;28;20509;-89
2023/04/22 05:20:33;;;;;;;13.60;9.52;;;;;;;;;;2054521;28;20031;-89
2023/04/22 05:21:33;;;;;;;12.63;9.15;;;;;;;;;;2054516;28;20030;-90
2023/04/22 05:22:35;;;;;;;11.05;8.15;;;;;;;;;;2054722;28;20034;-91
2023/04/22 05:23:35;;;;;;;10.57;7.65;;;;;;;;;;2046803;28;20611;-90
2023/04/22 05:24:36;;;;;;;11.98;7.70;;;;;;;;;;2054610;28;20027;-89
2023/04/22 05:25:37;;;;;;;10.55;7.25;;;;;;;;;;1710449;28;10246977;-89
2023/04/22 05:26:37;;;;;;;11.95;7.93;;;;;;;;;;2063234;28;20030;-90
2023/04/22 05:27:39;;;;;;;13.38;8.65;;;;;;;;;;2062473;28;20093;-89
2023/04/22 05:28:40;;;;;;;13.68;7.40;;;;;;;;;;2055026;28;20062;-90
2023/04/22 05:29:41;;;;;;;11.95;7.55;;;;;;;;;;2055253;28;20034;-89
2023/04/22 05:30:41;;;;;;;12.68;8.13;;;;;;;;;;2064896;28;20393;-86
2023/04/22 05:31:41;;;;;;;10.85;7.40;;;;;;;;;;2067141;28;20061;-89
2023/04/22 05:32:42;;;;;;;10.50;8.02;;;;;;;;;;2067023;28;20023;-88
2023/04/22 05:33:42;;;;;;;12.70;8.52;;;;;;;;;;2067028;28;20058;-89
2023/04/22 05:34:43;;;;;;;14.13;8.40;;;;;;;;;;2059007;28;20038;-90
2023/04/22 05:35:47;;;;;;;12.20;9.10;;;;;;;;;;2054889;28;20099;-90
2023/04/22 05:36:58;;;;;;;13.95;9.45;;;;;;;;;;2052772;28;20062;-89
2023/04/22 05:38:02;;;;;;;13.65;9.82;;;;;;;;;;2056511;28;20047;-91
2023/04/22 05:39:02;;;;;;;15.13;9.13;;;;;;;;;;2063333;28;20204;-89
2023/04/22 05:40:05;;;;;;;14.77;10.18;;;;;;;;;;2063262;28;20424;-90
2023/04/22 05:41:19;;;;;;;13.60;9.88;;;;;;;;;;1812374;28;10658245;-89
2023/04/22 05:42:20;;;;;;;13.88;9.80;;;;;;;;;;2054270;28;20331;-88
2023/04/22 05:43:20;;;;;;;14.77;10.68;;;;;;;;;;2054238;28;20410;-88
2023/04/22 05:44:21;;;;;;;17.00;11.10;;;;;;;;;;2053811;28;20026;-87
2023/04/22 05:45:21;;;;;;;16.38;9.32;;;;;;;;;;2054055;28;20423;-89
2023/04/22 05:46:22;;;;;;;13.80;10.20;;;;;;;;;;2062859;28;20033;-87
2023/04/22 05:47:23;;;;;;;13.73;10.73;;;;;;;;;;2062575;28;20019;-88
2023/04/22 05:48:24;;;;;;;15.13;10.10;;;;;;;;;;2062155;28;20046;-88
2023/04/22 05:49:27;;;;;;;12.30;8.82;;;;;;;;;;2053994;28;20031;-88
2023/04/22 05:50:39;;;;;;;14.15;8.93;;;;;;;;;;2048288;28;20514;-89
2023/04/22 05:51:41;;;;;;;11.52;8.57;;;;;;;;;;2060134;28;20027;-89
2023/04/22 05:52:41;;;;;;;11.65;9.07;;;;;;;;;;2054691;28;20038;-88
2023/04/22 05:53:41;;;;;;;15.10;9.20;;;;;;;;;;2054740;28;20039;-87
2023/04/22 05:54:42;;;;;;;13.95;9.93;;;;;;;;;;2063023;28;20018;-89
2023/04/22 05:55:45;;;;;;;12.50;9.00;;;;;;;;;;2063111;28;20066;-88
2023/04/22 05:56:46;;;;;;;16.05;9.80;;;;;;;;;;2054342;28;20420;-89
2023/04/22 05:57:47;;;;;;;17.92;10.48;;;;;;;;;;2054223;28;20026;-89
2023/04/22 05:58:47;;;;;;;21.48;10.63;;;;;;;;;;2062777;28;20129;-88
2023/04/22 05:59:48;;;;;;;13.57;9.95;;;;;;;;;;2062860;28;20029;-89
2023/04/22 06:00:48;;;;;;;15.40;10.63;;;;;;;;;;2062832;28;20030;-89
2023/04/22 06:01:49;;;;;;;17.08;11.32;;;;;;;;;;2063278;28;20509;-88
2023/04/22 06:02:49;;;;;;;17.63;11.07;;;;;;;;;;2062449;28;20030;-88
2023/04/22 06:03:52;;;;;;;17.23;11.07;;;;;;;;;;2054267;28;20019;-89
2023/04/22 06:04:52;;;;;;;16.90;12.18;;;;;;;;;;2054654;28;20030;-88